Time;durP1;ratioP1;P1;durP2;ratioP2;P2;SDS_P1;SDS_P2;PMS_P1;PMS_P2;Temp;Humidity;BMP_temperature;BMP_pressure;BME280_temperature;BME280_humidity;BME280_pressure;Samples;Min_cycle;Max_cycle;Signal;HPM_P1;HPM_P2
2022/03/15 00:01:10;;;;;;;6.75;4.05;;;;;;;;;;5059087;28;20029;-88
2022/03/15 00:03:36;;;;;;;6.15;3.00;;;;;;;;;;5054573;28;20043;-90
2022/03/15 00:06:02;;;;;;;6.03;3.53;;;;;;;;;;5063068;28;20091;-89
2022/03/15 00:08:28;;;;;;;7.60;3.92;;;;;;;;;;5066696;28;20048;-88
2022/03/15 00:10:58;;;;;;;6.28;3.67;;;;;;;;;;5057984;28;20149;-89
2022/03/15 00:13:28;;;;;;;8.02;3.47;;;;;;;;;;5055561;28;20028;-87
2022/03/15 00:15:55;;;;;;;5.03;3.60;;;;;;;;;;5059399;28;20131;-88
2022/03/15 00:18:21;;;;;;;7.10;3.55;;;;;;;;;;5067096;28;20028;-87
2022/03/15 00:20:47;;;;;;;6.70;4.43;;;;;;;;;;5058147;28;20476;-89
2022/03/15 00:23:13;;;;;;;6.43;3.67;;;;;;;;;;5069179;28;20130;-86
2022/03/15 00:25:39;;;;;;;5.78;3.50;;;;;;;;;;5067220;28;20032;-86
2022/03/15 00:28:04;;;;;;;10.27;4.88;;;;;;;;;;5067167;28;20028;-86
2022/03/15 00:30:30;;;;;;;6.82;3.22;;;;;;;;;;5069817;28;20028;-87
2022/03/15 00:32:55;;;;;;;7.47;3.42;;;;;;;;;;5065976;28;20044;-88
2022/03/15 00:35:25;;;;;;;8.57;3.63;;;;;;;;;;5058645;28;20024;-87
2022/03/15 00:37:55;;;;;;;7.07;3.72;;;;;;;;;;5066807;28;20016;-88
2022/03/15 00:40:22;;;;;;;5.88;3.47;;;;;;;;;;5055394;28;20067;-88
2022/03/15 00:42:50;;;;;;;6.85;4.20;;;;;;;;;;5058956;28;20029;-88
2022/03/15 00:45:16;;;;;;;10.48;4.82;;;;;;;;;;5060322;28;20556;-91
2022/03/15 00:47:42;;;;;;;5.78;4.00;;;;;;;;;;5064515;28;20060;-88
2022/03/15 00:50:08;;;;;;;7.13;3.97;;;;;;;;;;5060757;28;20064;-89
2022/03/15 00:52:35;;;;;;;4.13;3.22;;;;;;;;;;5053990;28;20119;-89
2022/03/15 00:55:00;;;;;;;6.75;3.85;;;;;;;;;;5063231;28;20020;-87
2022/03/15 00:57:26;;;;;;;11.75;4.65;;;;;;;;;;5065013;28;20488;-87
2022/03/15 00:59:52;;;;;;;6.30;3.83;;;;;;;;;;5060715;28;20037;-85
2022/03/15 01:02:17;;;;;;;6.90;4.07;;;;;;;;;;5067197;28;20032;-84
2022/03/15 01:04:43;;;;;;;6.65;3.67;;;;;;;;;;5058721;28;20111;-88
2022/03/15 01:07:11;;;;;;;5.30;3.60;;;;;;;;;;5052659;28;20032;-88
2022/03/15 01:09:36;;;;;;;9.38;3.85;;;;;;;;;;5064845;28;20457;-87
2022/03/15 01:12:02;;;;;;;9.48;4.05;;;;;;;;;;5059575;28;20059;-87
2022/03/15 01:14:28;;;;;;;6.93;4.82;;;;;;;;;;5064104;28;20032;-88
2022/03/15 01:16:55;;;;;;;7.25;4.07;;;;;;;;;;5059526;28;20447;-87
2022/03/15 01:19:22;;;;;;;6.00;4.20;;;;;;;;;;5062868;28;20388;-86
2022/03/15 01:21:48;;;;;;;6.00;3.58;;;;;;;;;;5057057;28;20033;-84
2022/03/15 01:24:14;;;;;;;6.00;3.60;;;;;;;;;;5055544;28;20032;-87
2022/03/15 01:26:39;;;;;;;6.63;3.80;;;;;;;;;;5051439;28;20039;-87
2022/03/15 01:29:05;;;;;;;7.85;3.90;;;;;;;;;;5060237;28;20032;-87
2022/03/15 01:31:30;;;;;;;9.10;3.85;;;;;;;;;;5057740;28;20028;-87
2022/03/15 01:33:56;;;;;;;6.82;4.13;;;;;;;;;;5068106;28;20035;-89
2022/03/15 01:36:22;;;;;;;7.60;3.58;;;;;;;;;;5062918;28;20059;-87
2022/03/15 01:38:48;;;;;;;9.48;4.18;;;;;;;;;;5069584;28;20111;-87
2022/03/15 01:41:14;;;;;;;7.55;3.63;;;;;;;;;;5059555;28;20387;-88
2022/03/15 01:43:40;;;;;;;5.18;3.33;;;;;;;;;;5067076;28;20029;-88
2022/03/15 01:46:09;;;;;;;7.18;3.60;;;;;;;;;;5058475;28;20060;-86
2022/03/15 01:48:35;;;;;;;7.32;3.13;;;;;;;;;;5068457;28;20115;-86
2022/03/15 01:51:02;;;;;;;7.03;5.25;;;;;;;;;;5054068;28;20047;-86
2022/03/15 01:53:28;;;;;;;8.40;5.13;;;;;;;;;;5061163;28;20477;-88
2022/03/15 01:55:54;;;;;;;7.38;3.72;;;;;;;;;;5067376;28;20055;-87
2022/03/15 01:58:19;;;;;;;7.35;3.60;;;;;;;;;;5052782;28;20412;-87
2022/03/15 02:00:45;;;;;;;5.25;3.00;;;;;;;;;;5057542;28;20024;-87
2022/03/15 02:03:11;;;;;;;7.63;3.97;;;;;;;;;;5068932;28;20480;-89
2022/03/15 02:05:36;;;;;;;6.78;3.80;;;;;;;;;;5067613;28;20036;-90
2022/03/15 02:08:09;;;;;;;4.25;2.53;;;;;;;;;;5058222;28;20028;-88
2022/03/15 02:10:35;;;;;;;4.40;2.85;;;;;;;;;;5054297;28;20411;-90
2022/03/15 02:13:00;;;;;;;4.63;3.22;;;;;;;;;;5057250;28;20036;-89
2022/03/15 02:15:25;;;;;;;5.22;3.10;;;;;;;;;;5067518;28;20031;-89
2022/03/15 02:17:51;;;;;;;7.10;3.40;;;;;;;;;;5064683;28;20021;-90
2022/03/15 02:20:16;;;;;;;4.28;2.53;;;;;;;;;;5069050;28;20032;-90
2022/03/15 02:22:42;;;;;;;5.45;2.58;;;;;;;;;;5068719;28;20055;-91
2022/03/15 02:25:08;;;;;;;3.78;2.90;;;;;;;;;;5067983;28;20149;-91
2022/03/15 02:27:33;;;;;;;4.30;2.40;;;;;;;;;;5065961;28;20032;-90
2022/03/15 02:29:59;;;;;;;6.05;2.60;;;;;;;;;;5064488;28;20423;-88
2022/03/15 02:32:24;;;;;;;7.15;3.10;;;;;;;;;;5061167;28;20024;-87
2022/03/15 02:34:50;;;;;;;5.90;3.05;;;;;;;;;;5056853;28;20034;-89
2022/03/15 02:37:15;;;;;;;5.20;3.03;;;;;;;;;;5066521;28;20089;-88
2022/03/15 02:39:41;;;;;;;5.45;2.47;;;;;;;;;;5060189;28;20489;-90
2022/03/15 02:42:07;;;;;;;5.28;3.53;;;;;;;;;;5058138;28;20031;-89
2022/03/15 02:44:32;;;;;;;5.20;3.30;;;;;;;;;;5062747;28;20381;-89
2022/03/15 02:46:57;;;;;;;5.97;3.88;;;;;;;;;;5065578;28;20411;-90
2022/03/15 02:49:23;;;;;;;5.20;3.40;;;;;;;;;;5063458;28;20132;-90
2022/03/15 02:51:48;;;;;;;7.68;4.32;;;;;;;;;;5066948;28;20032;-89
2022/03/15 02:54:14;;;;;;;9.48;4.80;;;;;;;;;;5060509;28;20107;-91
2022/03/15 02:56:44;;;;;;;5.65;3.13;;;;;;;;;;5054315;28;20035;-90
2022/03/15 02:59:12;;;;;;;5.07;3.33;;;;;;;;;;5064703;28;20064;-91
2022/03/15 03:01:37;;;;;;;6.78;4.03;;;;;;;;;;5060581;28;20071;-91
2022/03/15 03:04:03;;;;;;;5.07;2.67;;;;;;;;;;5062732;28;20123;-88
2022/03/15 03:06:28;;;;;;;5.82;3.47;;;;;;;;;;5060177;28;20115;-89
2022/03/15 03:08:54;;;;;;;8.13;4.05;;;;;;;;;;5055758;28;20121;-87
2022/03/15 03:11:19;;;;;;;4.10;2.75;;;;;;;;;;5063615;28;20051;-88
2022/03/15 03:13:47;;;;;;;5.38;2.70;;;;;;;;;;5063886;28;20028;-88
2022/03/15 03:16:13;;;;;;;5.35;2.80;;;;;;;;;;5057203;28;20024;-86
2022/03/15 03:18:39;;;;;;;3.30;2.38;;;;;;;;;;5063885;28;20040;-89
2022/03/15 03:21:06;;;;;;;5.38;2.92;;;;;;;;;;5061639;28;20047;-90
2022/03/15 03:23:34;;;;;;;4.15;2.67;;;;;;;;;;5070133;28;20109;-90
2022/03/15 03:26:01;;;;;;;3.53;2.30;;;;;;;;;;5062401;28;20085;-91
2022/03/15 03:28:36;;;;;;;4.75;2.42;;;;;;;;;;5064157;28;20043;-91
2022/03/15 03:31:03;;;;;;;2.97;2.08;;;;;;;;;;5055487;28;20079;-90
2022/03/15 03:33:29;;;;;;;4.88;2.30;;;;;;;;;;5064858;28;20031;-91
2022/03/15 03:35:55;;;;;;;5.75;2.95;;;;;;;;;;5062434;28;20025;-90
2022/03/15 03:38:20;;;;;;;2.83;2.00;;;;;;;;;;5062062;28;20016;-90
2022/03/15 03:40:46;;;;;;;3.47;2.20;;;;;;;;;;5059404;28;20028;-89
2022/03/15 03:43:12;;;;;;;2.95;2.40;;;;;;;;;;5060693;28;20020;-89
2022/03/15 03:45:38;;;;;;;3.47;2.30;;;;;;;;;;5059244;28;20102;-89
2022/03/15 03:48:05;;;;;;;3.78;2.10;;;;;;;;;;5058788;28;20103;-89
2022/03/15 03:50:30;;;;;;;3.10;2.25;;;;;;;;;;5060803;28;20166;-88
2022/03/15 03:52:56;;;;;;;5.05;2.30;;;;;;;;;;5065329;28;20115;-87
2022/03/15 03:55:21;;;;;;;5.63;2.45;;;;;;;;;;5056654;28;20116;-88
2022/03/15 03:57:47;;;;;;;3.58;2.28;;;;;;;;;;5063069;28;20025;-85
2022/03/15 04:00:13;;;;;;;5.22;3.88;;;;;;;;;;5065190;28;20529;-87
2022/03/15 04:02:39;;;;;;;5.22;3.60;;;;;;;;;;5059813;28;20028;-88
2022/03/15 04:05:05;;;;;;;4.32;3.47;;;;;;;;;;5061120;28;20032;-89
2022/03/15 04:07:31;;;;;;;4.90;3.08;;;;;;;;;;5060519;28;20457;-88
2022/03/15 04:09:56;;;;;;;5.45;2.90;;;;;;;;;;5070868;28;20048;-88
2022/03/15 04:12:23;;;;;;;4.68;3.08;;;;;;;;;;5058501;28;20032;-89
2022/03/15 04:14:48;;;;;;;4.63;2.97;;;;;;;;;;5056595;28;20036;-88
2022/03/15 04:17:14;;;;;;;2.85;1.80;;;;;;;;;;5061503;28;20030;-89
2022/03/15 04:19:40;;;;;;;2.92;2.08;;;;;;;;;;5056448;28;20654;-90
2022/03/15 04:22:06;;;;;;;4.15;2.25;;;;;;;;;;5061156;28;20115;-89
2022/03/15 04:24:32;;;;;;;2.38;1.73;;;;;;;;;;5059976;28;20024;-89
2022/03/15 04:26:59;;;;;;;4.22;2.08;;;;;;;;;;5054016;28;20368;-89
2022/03/15 04:29:26;;;;;;;3.33;2.13;;;;;;;;;;5056621;28;20017;-89
2022/03/15 04:31:51;;;;;;;2.97;1.33;;;;;;;;;;5067976;28;20029;-90
2022/03/15 04:34:17;;;;;;;2.60;1.00;;;;;;;;;;5063848;28;20023;-89
2022/03/15 04:36:44;;;;;;;3.50;1.88;;;;;;;;;;5062653;28;20056;-91
2022/03/15 04:39:10;;;;;;;2.75;1.48;;;;;;;;;;5056300;28;20024;-89
2022/03/15 04:41:36;;;;;;;4.22;2.10;;;;;;;;;;5066351;28;20070;-88
2022/03/15 04:44:01;;;;;;;4.25;2.20;;;;;;;;;;5058350;28;20404;-90
2022/03/15 04:46:27;;;;;;;4.03;2.17;;;;;;;;;;5065100;28;20032;-91
2022/03/15 04:48:53;;;;;;;5.60;2.80;;;;;;;;;;5065087;28;20028;-88
2022/03/15 04:51:19;;;;;;;5.18;3.38;;;;;;;;;;5060824;28;20489;-91
2022/03/15 04:53:46;;;;;;;5.13;3.05;;;;;;;;;;5060741;28;20056;-89
2022/03/15 04:56:11;;;;;;;3.55;2.45;;;;;;;;;;5059706;28;20056;-90
2022/03/15 04:58:37;;;;;;;4.97;2.42;;;;;;;;;;5059761;28;20056;-88
2022/03/15 05:01:03;;;;;;;3.63;2.58;;;;;;;;;;5065710;28;20032;-88
2022/03/15 05:03:29;;;;;;;3.47;2.15;;;;;;;;;;5066662;28;20021;-89
2022/03/15 05:05:54;;;;;;;4.47;2.40;;;;;;;;;;5064090;28;20036;-88
2022/03/15 05:08:19;;;;;;;3.20;2.28;;;;;;;;;;5068444;28;20033;-87
2022/03/15 05:13:29;;;;;;;3.95;2.60;;;;;;;;;;5069475;28;20035;-88
2022/03/15 05:15:55;;;;;;;3.38;2.38;;;;;;;;;;5074759;28;20395;-87
2022/03/15 05:18:20;;;;;;;4.45;2.50;;;;;;;;;;5062842;28;20064;-90
2022/03/15 05:20:46;;;;;;;5.88;3.15;;;;;;;;;;5061741;28;20108;-88
2022/03/15 05:23:11;;;;;;;4.55;3.10;;;;;;;;;;5062853;28;20031;-88
2022/03/15 05:25:37;;;;;;;5.78;3.75;;;;;;;;;;5073126;28;20116;-88
2022/03/15 05:28:03;;;;;;;5.20;3.28;;;;;;;;;;5058435;28;20453;-87
2022/03/15 05:30:28;;;;;;;6.63;3.33;;;;;;;;;;5062052;28;20119;-86
2022/03/15 05:32:54;;;;;;;6.85;3.85;;;;;;;;;;5074252;28;20418;-86
2022/03/15 05:35:19;;;;;;;7.72;4.15;;;;;;;;;;5064562;28;20052;-88
2022/03/15 05:37:45;;;;;;;6.03;3.50;;;;;;;;;;5063690;28;20055;-87
2022/03/15 05:40:11;;;;;;;7.68;4.97;;;;;;;;;;5065553;28;20032;-86
2022/03/15 05:42:36;;;;;;;9.68;5.78;;;;;;;;;;5063208;28;20085;-89
2022/03/15 05:45:03;;;;;;;5.93;3.83;;;;;;;;;;5066932;28;20411;-88
2022/03/15 05:47:29;;;;;;;12.13;6.60;;;;;;;;;;5065316;28;20464;-89
2022/03/15 05:49:54;;;;;;;7.95;5.13;;;;;;;;;;5055435;28;20079;-90
2022/03/15 05:52:20;;;;;;;11.38;6.40;;;;;;;;;;5064119;28;20393;-89
2022/03/15 05:54:45;;;;;;;9.77;5.78;;;;;;;;;;5066529;28;20062;-88
2022/03/15 05:57:11;;;;;;;10.05;6.30;;;;;;;;;;5059553;28;20027;-88
2022/03/15 05:59:36;;;;;;;8.52;5.00;;;;;;;;;;5063927;28;20031;-89
2022/03/15 06:02:02;;;;;;;9.95;4.97;;;;;;;;;;5058530;28;20112;-90
2022/03/15 06:04:27;;;;;;;15.23;8.13;;;;;;;;;;5056958;28;20047;-89
2022/03/15 06:06:57;;;;;;;12.73;7.97;;;;;;;;;;5057367;28;20425;-89
2022/03/15 06:09:24;;;;;;;13.50;8.90;;;;;;;;;;5062303;28;20107;-91
2022/03/15 06:11:51;;;;;;;15.90;8.02;;;;;;;;;;5056762;28;20056;-88
2022/03/15 06:14:16;;;;;;;20.17;11.15;;;;;;;;;;5059871;28;20021;-89
2022/03/15 06:16:42;;;;;;;26.55;13.05;;;;;;;;;;5058510;28;20031;-89
2022/03/15 06:19:07;;;;;;;19.38;11.73;;;;;;;;;;5048090;28;20366;-89
2022/03/15 06:21:33;;;;;;;15.93;9.90;;;;;;;;;;5049949;28;20522;-86
2022/03/15 06:24:00;;;;;;;17.27;10.93;;;;;;;;;;5049936;28;20028;-86
2022/03/15 06:26:26;;;;;;;18.25;11.35;;;;;;;;;;5057562;28;20029;-89
2022/03/15 06:28:52;;;;;;;14.75;9.80;;;;;;;;;;5067043;28;20031;-88
2022/03/15 06:31:17;;;;;;;19.85;10.93;;;;;;;;;;5059687;28;20024;-87
2022/03/15 06:33:44;;;;;;;21.10;10.77;;;;;;;;;;5054810;28;20037;-87
2022/03/15 06:36:14;;;;;;;20.52;12.10;;;;;;;;;;5062866;28;20029;-88
2022/03/15 06:38:43;;;;;;;;;;;;;;;;;;5063131;28;20089;-85
2022/03/15 06:41:11;;;;;;;21.73;9.88;;;;;;;;;;5051285;28;19916;-89
2022/03/15 06:43:39;;;;;;;20.80;11.70;;;;;;;;;;5052285;28;20090;-87
2022/03/15 06:46:05;;;;;;;23.27;10.82;;;;;;;;;;5055813;28;20033;-88
2022/03/15 06:48:31;;;;;;;18.00;9.88;;;;;;;;;;5052068;28;20037;-90
2022/03/15 06:50:56;;;;;;;29.35;11.73;;;;;;;;;;5050883;28;20116;-88
2022/03/15 06:53:22;;;;;;;26.38;15.13;;;;;;;;;;5046840;28;20088;-85
2022/03/15 06:55:48;;;;;;;28.15;14.80;;;;;;;;;;5055340;28;20097;-89
2022/03/15 06:58:14;;;;;;;25.50;14.52;;;;;;;;;;5055345;28;20074;-86
2022/03/15 07:00:39;;;;;;;23.63;14.40;;;;;;;;;;5056752;28;20033;-87
2022/03/15 07:03:05;;;;;;;32.55;14.90;;;;;;;;;;5056943;28;20495;-89
2022/03/15 07:05:31;;;;;;;32.58;14.18;;;;;;;;;;5054822;28;20107;-88
2022/03/15 07:07:56;;;;;;;25.45;14.43;;;;;;;;;;5057139;28;20144;-89
2022/03/15 07:10:22;;;;;;;26.02;16.20;;;;;;;;;;5045424;28;20045;-89
2022/03/15 07:12:48;;;;;;;24.13;14.57;;;;;;;;;;5049041;28;20496;-90
2022/03/15 07:15:14;;;;;;;23.40;14.75;;;;;;;;;;5048683;28;20059;-90
2022/03/15 07:17:53;;;;;;;26.48;15.05;;;;;;;;;;5039862;28;20393;-88
2022/03/15 07:20:21;;;;;;;23.63;14.43;;;;;;;;;;5063753;28;20473;-89
2022/03/15 07:22:47;;;;;;;25.00;14.90;;;;;;;;;;5063547;28;20051;-88
2022/03/15 07:25:13;;;;;;;26.45;13.98;;;;;;;;;;5056718;28;20032;-90
2022/03/15 07:27:39;;;;;;;26.55;16.65;;;;;;;;;;5057603;28;20361;-89
2022/03/15 07:30:05;;;;;;;37.55;16.67;;;;;;;;;;5055889;28;20028;-89
2022/03/15 07:32:31;;;;;;;24.13;15.50;;;;;;;;;;5054938;28;20025;-89
2022/03/15 07:34:56;;;;;;;25.80;15.68;;;;;;;;;;5052458;28;20553;-89
2022/03/15 07:37:22;;;;;;;29.35;15.98;;;;;;;;;;5051128;28;20021;-90
2022/03/15 07:39:48;;;;;;;23.25;14.98;;;;;;;;;;5066632;28;20086;-89
2022/03/15 07:42:13;;;;;;;27.05;15.52;;;;;;;;;;5061027;28;20079;-88
2022/03/15 07:44:42;;;;;;;29.58;16.40;;;;;;;;;;5057327;28;20020;-89
2022/03/15 07:47:07;;;;;;;28.63;17.45;;;;;;;;;;5070558;28;20472;-90
2022/03/15 07:49:33;;;;;;;29.63;16.05;;;;;;;;;;5064266;28;20028;-90
2022/03/15 07:51:58;;;;;;;31.92;16.83;;;;;;;;;;5063022;28;20481;-87
2022/03/15 07:54:24;;;;;;;30.98;17.25;;;;;;;;;;5064892;28;20039;-88
2022/03/15 07:56:50;;;;;;;34.03;18.30;;;;;;;;;;5052928;28;20037;-87
2022/03/15 07:59:15;;;;;;;32.75;17.40;;;;;;;;;;5056969;28;20107;-88
2022/03/15 08:01:41;;;;;;;27.35;16.95;;;;;;;;;;5057471;28;20103;-90
2022/03/15 08:04:07;;;;;;;26.65;15.93;;;;;;;;;;5066850;28;20383;-89
2022/03/15 08:06:35;;;;;;;28.15;16.77;;;;;;;;;;5071070;28;20054;-86
2022/03/15 08:09:00;;;;;;;27.98;15.95;;;;;;;;;;5054647;28;20029;-88
2022/03/15 08:11:26;;;;;;;30.35;15.55;;;;;;;;;;5049915;28;20048;-88
2022/03/15 08:13:53;;;;;;;23.65;14.85;;;;;;;;;;5046249;28;20025;-89
2022/03/15 08:16:21;;;;;;;28.23;17.95;;;;;;;;;;5047871;28;20112;-89
2022/03/15 08:18:46;;;;;;;33.50;19.17;;;;;;;;;;5052029;28;20021;-87
2022/03/15 08:21:13;;;;;;;35.47;22.45;;;;;;;;;;5054491;28;20103;-89
2022/03/15 08:23:38;;;;;;;45.72;21.92;;;;;;;;;;5067948;28;20062;-90
2022/03/15 08:26:04;;;;;;;37.60;20.60;;;;;;;;;;5052209;28;20047;-85
2022/03/15 08:28:29;;;;;;;30.20;19.48;;;;;;;;;;5060962;28;20033;-86
2022/03/15 08:30:55;;;;;;;40.80;21.00;;;;;;;;;;5047389;28;20417;-89
2022/03/15 08:33:22;;;;;;;39.45;21.20;;;;;;;;;;5047538;28;20028;-89
2022/03/15 08:35:48;;;;;;;31.60;19.48;;;;;;;;;;5055798;28;20028;-86
2022/03/15 08:38:13;;;;;;;32.53;17.60;;;;;;;;;;5056838;28;20028;-88
2022/03/15 08:40:39;;;;;;;34.00;16.85;;;;;;;;;;5055134;28;20021;-87
2022/03/15 08:43:06;;;;;;;37.38;19.67;;;;;;;;;;5064957;28;20029;-86
2022/03/15 08:45:31;;;;;;;29.15;15.80;;;;;;;;;;5054269;28;20543;-91
2022/03/15 08:47:57;;;;;;;29.13;16.92;;;;;;;;;;5049682;28;20108;-89
2022/03/15 08:50:23;;;;;;;39.20;19.15;;;;;;;;;;5050929;28;20111;-87
2022/03/15 08:52:49;;;;;;;27.30;16.38;;;;;;;;;;5057983;28;20123;-85
2022/03/15 08:55:16;;;;;;;27.15;16.63;;;;;;;;;;5054216;28;20032;-88
2022/03/15 08:57:41;;;;;;;29.08;15.48;;;;;;;;;;5052699;28;20047;-88
2022/03/15 09:00:09;;;;;;;23.05;14.23;;;;;;;;;;5046869;28;20037;-87
2022/03/15 09:02:34;;;;;;;32.58;15.32;;;;;;;;;;5041432;28;20480;-89
2022/03/15 09:05:00;;;;;;;27.05;14.60;;;;;;;;;;5056501;28;20024;-89
2022/03/15 09:07:27;;;;;;;28.17;16.08;;;;;;;;;;5060877;28;20097;-87
2022/03/15 09:09:53;;;;;;;28.70;15.32;;;;;;;;;;5061372;28;20496;-85
2022/03/15 09:12:19;;;;;;;27.45;15.95;;;;;;;;;;5059296;28;20380;-85
2022/03/15 09:14:44;;;;;;;29.02;15.02;;;;;;;;;;5051000;28;20041;-85
2022/03/15 09:17:10;;;;;;;26.40;15.27;;;;;;;;;;5053050;28;20025;-84
2022/03/15 09:19:36;;;;;;;24.80;13.85;;;;;;;;;;5054352;28;20163;-86
2022/03/15 09:22:03;;;;;;;25.45;14.70;;;;;;;;;;5050667;28;20120;-90
2022/03/15 09:24:30;;;;;;;29.17;15.02;;;;;;;;;;5045537;28;20040;-88
2022/03/15 09:26:56;;;;;;;26.63;13.90;;;;;;;;;;5053479;28;20025;-86
2022/03/15 09:29:21;;;;;;;25.08;13.25;;;;;;;;;;5048314;28;20492;-90
2022/03/15 09:31:47;;;;;;;18.33;12.23;;;;;;;;;;5050721;28;20461;-86
2022/03/15 09:34:13;;;;;;;21.17;13.43;;;;;;;;;;5056468;28;20048;-87
2022/03/15 09:36:39;;;;;;;27.42;14.95;;;;;;;;;;5050193;28;20110;-88
2022/03/15 09:39:07;;;;;;;22.13;14.57;;;;;;;;;;5046814;28;20072;-87
2022/03/15 09:41:38;;;;;;;25.42;13.43;;;;;;;;;;5057167;28;20036;-86
2022/03/15 09:44:06;;;;;;;20.40;14.02;;;;;;;;;;5061868;28;20108;-87
2022/03/15 09:46:35;;;;;;;23.38;14.05;;;;;;;;;;5066555;28;20147;-85
2022/03/15 09:49:01;;;;;;;25.27;14.23;;;;;;;;;;5058307;28;20395;-86
2022/03/15 09:51:32;;;;;;;27.02;15.02;;;;;;;;;;5066773;28;20032;-84
2022/03/15 09:53:59;;;;;;;22.60;14.25;;;;;;;;;;5057780;28;20494;-89
2022/03/15 09:56:25;;;;;;;29.42;16.80;;;;;;;;;;5056577;28;20041;-89
2022/03/15 09:58:51;;;;;;;26.30;16.52;;;;;;;;;;5066647;28;20070;-89
2022/03/15 10:01:18;;;;;;;26.05;16.70;;;;;;;;;;5064207;28;20024;-83
2022/03/15 10:03:47;;;;;;;26.98;16.50;;;;;;;;;;5057958;28;20375;-88
2022/03/15 10:06:14;;;;;;;29.00;17.15;;;;;;;;;;5064162;28;20859;-86
2022/03/15 10:08:40;;;;;;;25.80;17.10;;;;;;;;;;5065510;28;20131;-86
2022/03/15 10:11:05;;;;;;;27.80;18.10;;;;;;;;;;5065197;28;20080;-87
2022/03/15 10:13:31;;;;;;;29.63;17.20;;;;;;;;;;5062907;28;20075;-88
2022/03/15 10:16:03;;;;;;;28.88;17.95;;;;;;;;;;5059199;28;20028;-86
2022/03/15 10:18:29;;;;;;;32.13;18.20;;;;;;;;;;5061596;28;20050;-87
2022/03/15 10:20:55;;;;;;;27.83;15.93;;;;;;;;;;5049299;28;20025;-84
2022/03/15 10:23:29;;;;;;;29.88;16.95;;;;;;;;;;5054975;28;20070;-90
2022/03/15 10:25:56;;;;;;;27.40;18.60;;;;;;;;;;5061172;28;20025;-84
2022/03/15 10:28:23;;;;;;;28.75;16.92;;;;;;;;;;5059293;28;20086;-84
2022/03/15 10:30:49;;;;;;;30.00;17.52;;;;;;;;;;5057534;28;20020;-86
2022/03/15 10:33:16;;;;;;;29.75;17.73;;;;;;;;;;5055278;28;20025;-88
2022/03/15 10:35:49;;;;;;;31.50;19.08;;;;;;;;;;5057981;28;20036;-84
2022/03/15 10:38:15;;;;;;;30.17;17.60;;;;;;;;;;5057704;28;20031;-89
2022/03/15 10:40:45;;;;;;;33.75;19.02;;;;;;;;;;5055983;28;20037;-85
2022/03/15 10:43:23;;;;;;;27.88;18.42;;;;;;;;;;5066916;28;20031;-89
2022/03/15 10:45:57;;;;;;;26.88;17.25;;;;;;;;;;5061674;28;20088;-89
2022/03/15 10:48:25;;;;;;;33.30;18.98;;;;;;;;;;5060601;28;20025;-86
2022/03/15 10:50:56;;;;;;;28.20;17.15;;;;;;;;;;5067613;28;20502;-87
2022/03/15 10:53:25;;;;;;;29.38;17.20;;;;;;;;;;5057916;28;20021;-86
2022/03/15 10:56:07;;;;;;;30.70;18.40;;;;;;;;;;5053302;28;20366;-85
2022/03/15 10:58:34;;;;;;;32.20;17.48;;;;;;;;;;5057481;28;20488;-85
2022/03/15 11:00:59;;;;;;;44.25;19.30;;;;;;;;;;5054636;28;20075;-86
2022/03/15 11:03:29;;;;;;;31.13;17.35;;;;;;;;;;5049356;28;20503;-86
2022/03/15 11:05:57;;;;;;;30.27;16.30;;;;;;;;;;5054154;28;20059;-90
2022/03/15 11:08:23;;;;;;;27.02;14.88;;;;;;;;;;5061300;28;20533;-91
2022/03/15 11:10:52;;;;;;;25.55;14.90;;;;;;;;;;5062467;28;20048;-88
2022/03/15 11:13:18;;;;;;;29.88;15.77;;;;;;;;;;5055644;28;20035;-90
2022/03/15 11:15:49;;;;;;;22.30;15.13;;;;;;;;;;5060845;28;20029;-90
2022/03/15 11:18:17;;;;;;;30.02;13.50;;;;;;;;;;5058412;28;20021;-89
2022/03/15 11:20:45;;;;;;;24.23;11.40;;;;;;;;;;5054476;28;20499;-89
2022/03/15 11:23:14;;;;;;;17.77;11.63;;;;;;;;;;5063020;28;20040;-87
2022/03/15 11:25:46;;;;;;;20.10;10.57;;;;;;;;;;5063481;28;20043;-90
2022/03/15 11:28:23;;;;;;;19.48;11.18;;;;;;;;;;5063465;28;20028;-93
2022/03/15 11:30:56;;;;;;;19.35;13.43;;;;;;;;;;5064053;28;20071;-91
2022/03/15 11:33:26;;;;;;;19.00;10.95;;;;;;;;;;5059710;28;20032;-87
2022/03/15 11:35:52;;;;;;;19.77;10.70;;;;;;;;;;5058648;28;20020;-89
2022/03/15 11:38:18;;;;;;;18.80;10.75;;;;;;;;;;5057796;28;20028;-90
2022/03/15 11:40:45;;;;;;;18.63;11.02;;;;;;;;;;5062098;28;20468;-87
2022/03/15 11:43:43;;;;;;;;;;;;;;;;;;;;;
2022/03/15 11:46:16;;;;;;;17.05;8.50;;;;;;;;;;5062547;28;20032;-85
2022/03/15 11:48:58;;;;;;;14.00;8.23;;;;;;;;;;5045780;28;20048;-88
2022/03/15 11:51:36;;;;;;;10.88;6.45;;;;;;;;;;5047607;28;20032;-86
2022/03/15 11:54:39;;;;;;;15.40;8.07;;;;;;;;;;5053692;28;20060;-87
2022/03/15 11:57:13;;;;;;;12.55;6.25;;;;;;;;;;5057771;28;20347;-87
2022/03/15 12:00:05;;;;;;;8.48;4.68;;;;;;;;;;5054247;28;20040;-89
2022/03/15 12:02:38;;;;;;;10.32;4.78;;;;;;;;;;5054765;28;20094;-86
2022/03/15 12:05:17;;;;;;;7.47;4.75;;;;;;;;;;5057305;28;20025;-89
2022/03/15 12:08:04;;;;;;;7.18;3.97;;;;;;;;;;5059815;28;20027;-86
2022/03/15 12:10:36;;;;;;;8.00;4.03;;;;;;;;;;5057540;28;20049;-88
2022/03/15 12:13:03;;;;;;;6.70;4.68;;;;;;;;;;5059496;28;20040;-84
2022/03/15 12:15:38;;;;;;;7.70;4.25;;;;;;;;;;5047433;28;20503;-87
2022/03/15 12:18:27;;;;;;;4.97;3.50;;;;;;;;;;5049454;28;20026;-88
2022/03/15 12:21:06;;;;;;;6.88;3.90;;;;;;;;;;5049812;28;20025;-87
2022/03/15 12:23:46;;;;;;;11.13;6.40;;;;;;;;;;5054634;28;20583;-88
2022/03/15 12:26:29;;;;;;;5.90;4.10;;;;;;;;;;5052945;28;20166;-86
2022/03/15 12:29:03;;;;;;;6.00;3.80;;;;;;;;;;5055165;28;20118;-87
2022/03/15 12:31:40;;;;;;;6.45;3.42;;;;;;;;;;5051283;28;20029;-85
2022/03/15 12:34:14;;;;;;;5.43;3.42;;;;;;;;;;5061166;28;20036;-86
2022/03/15 12:36:40;;;;;;;6.35;3.65;;;;;;;;;;5067237;28;20029;-83
2022/03/15 12:39:11;;;;;;;6.40;3.78;;;;;;;;;;5055428;28;20108;-84
2022/03/15 12:41:37;;;;;;;5.75;3.45;;;;;;;;;;5059206;28;20464;-86
2022/03/15 12:44:03;;;;;;;6.07;3.40;;;;;;;;;;5051551;28;20027;-87
2022/03/15 12:46:30;;;;;;;9.50;3.80;;;;;;;;;;5053192;28;20040;-86
2022/03/15 12:49:05;;;;;;;7.97;4.18;;;;;;;;;;5044087;28;20028;-89
2022/03/15 12:51:41;;;;;;;7.07;4.22;;;;;;;;;;5049355;28;20048;-85
2022/03/15 12:54:11;;;;;;;7.63;3.80;;;;;;;;;;5051247;28;20111;-87
2022/03/15 12:56:51;;;;;;;8.60;3.65;;;;;;;;;;5051831;28;20028;-85
2022/03/15 12:59:18;;;;;;;6.88;3.90;;;;;;;;;;5063602;28;20029;-85
2022/03/15 13:01:48;;;;;;;7.03;4.50;;;;;;;;;;5053206;28;20040;-85
2022/03/15 13:04:15;;;;;;;12.15;5.93;;;;;;;;;;5058122;28;20118;-85
2022/03/15 13:06:44;;;;;;;7.70;3.53;;;;;;;;;;5054362;28;20102;-87
2022/03/15 13:09:09;;;;;;;6.97;3.92;;;;;;;;;;5062018;28;20025;-87
2022/03/15 13:11:45;;;;;;;10.77;5.57;;;;;;;;;;5054541;28;20055;-87
2022/03/15 13:14:12;;;;;;;8.43;4.72;;;;;;;;;;5054039;28;20048;-86
2022/03/15 13:16:44;;;;;;;9.45;4.32;;;;;;;;;;5055748;28;20029;-87
2022/03/15 13:19:10;;;;;;;5.78;3.95;;;;;;;;;;5050100;28;20124;-86
2022/03/15 13:21:38;;;;;;;7.00;3.80;;;;;;;;;;5055186;28;20059;-89
2022/03/15 13:24:08;;;;;;;7.78;3.88;;;;;;;;;;5050897;28;20020;-90
2022/03/15 13:26:34;;;;;;;6.28;4.03;;;;;;;;;;5066573;28;20055;-87
2022/03/15 13:29:00;;;;;;;5.40;4.00;;;;;;;;;;5065025;28;20025;-88
2022/03/15 13:31:26;;;;;;;5.70;3.97;;;;;;;;;;5059347;28;20502;-86
2022/03/15 13:33:56;;;;;;;6.55;4.22;;;;;;;;;;5068453;28;20083;-87
2022/03/15 13:36:24;;;;;;;7.03;4.75;;;;;;;;;;5062023;28;20035;-87
2022/03/15 13:38:53;;;;;;;9.00;4.53;;;;;;;;;;5059074;28;20039;-87
2022/03/15 13:41:22;;;;;;;8.43;4.05;;;;;;;;;;5054239;28;20029;-86
2022/03/15 13:43:48;;;;;;;6.22;3.75;;;;;;;;;;5061515;28;20028;-89
2022/03/15 13:46:16;;;;;;;6.07;4.07;;;;;;;;;;5061298;28;20020;-88
2022/03/15 13:48:43;;;;;;;8.10;4.07;;;;;;;;;;5055906;28;20025;-88
2022/03/15 13:51:32;;;;;;;10.57;4.80;;;;;;;;;;5064785;28;20048;-92
2022/03/15 13:54:08;;;;;;;9.68;4.30;;;;;;;;;;5066632;28;20444;-88
2022/03/15 13:56:53;;;;;;;11.20;3.90;;;;;;;;;;5062848;28;20029;-86
2022/03/15 13:59:24;;;;;;;6.40;4.47;;;;;;;;;;5051791;28;20506;-85
2022/03/15 14:02:02;;;;;;;7.30;4.07;;;;;;;;;;5059609;28;20024;-89
2022/03/15 14:04:34;;;;;;;5.82;3.80;;;;;;;;;;5058889;28;20053;-86
2022/03/15 14:07:05;;;;;;;7.97;4.53;;;;;;;;;;5051990;28;20028;-87
2022/03/15 14:09:32;;;;;;;7.15;4.20;;;;;;;;;;5051444;28;20037;-87
2022/03/15 14:12:16;;;;;;;6.82;4.70;;;;;;;;;;5054723;28;20033;-90
2022/03/15 14:14:51;;;;;;;8.50;5.75;;;;;;;;;;5053686;28;20477;-84
2022/03/15 14:17:31;;;;;;;10.73;5.13;;;;;;;;;;5061552;28;20039;-87
2022/03/15 14:19:58;;;;;;;11.35;6.50;;;;;;;;;;5060631;28;20042;-87
2022/03/15 14:22:25;;;;;;;8.40;4.85;;;;;;;;;;5056261;28;20358;-86
2022/03/15 14:24:58;;;;;;;8.68;5.75;;;;;;;;;;5052017;28;20483;-85
2022/03/15 14:27:25;;;;;;;10.68;7.28;;;;;;;;;;5051777;28;20357;-86
2022/03/15 14:29:54;;;;;;;11.82;7.43;;;;;;;;;;5053561;28;20021;-86
2022/03/15 14:32:20;;;;;;;13.73;7.10;;;;;;;;;;5051216;28;20028;-86
2022/03/15 14:35:04;;;;;;;8.02;4.72;;;;;;;;;;5053432;28;20063;-85
2022/03/15 14:37:31;;;;;;;10.27;5.38;;;;;;;;;;5056072;28;20071;-87
2022/03/15 14:40:05;;;;;;;10.07;4.85;;;;;;;;;;5054530;28;20021;-87